Rapid City, SD

2:13 AM MDT on August 24, 2016 (GMT -0600)
APRSWXNET | | Change Station

Elev 3264 ft 44.08 °N, 103.21 °W | Updated 4 days ago

Partly Cloudy
Partly Cloudy
55 °F
Feels Like 55 °F
N
8
Wind Variable Wind from NNW
Gusts 12 mph

Today
High -- | Low -- °F
--% Chance of Precip.
Yesterday
High -- | Low -- °F
Precip. -- in
Pressure 30.03 in
Visibility 10.0 miles
Clouds Clear
Dew Point 40 °F
Humidity 56%
Rainfall in
Snow Depth Not available.
6:07 AM 7:41 PM
Waning Gibbous, 59% visible
METAR KRAP 240752Z AUTO 32009KT 10SM CLR 15/01 A3010 RMK AO2 SLP168 T01500011
Pressure 30.03 in
Visibility 10.0 miles
Clouds Clear
Dew Point 40 °F
Humidity 56%
Rainfall in
Snow Depth Not available.
6:07 AM 7:41 PM
Waning Gibbous, 59% visible
METAR KRAP 240752Z AUTO 32009KT 10SM CLR 15/01 A3010 RMK AO2 SLP168 T01500011

10-Day Weather Forecast

Almanac

Astronomy

Aug. 24, 2016 Rise Set
Actual Time
Civil Twilight
Nautical Twilight
Astronomical Twilight
Moon
Length of Visible Light
Length of Day
Tomorrow will be .
, % of the Moon is Illuminated

Today's Extremes

State Highs State Lows

Community

WunderPhotos

Upload Photos

1,934,552 photos uploaded!

WunderBlog® & News

Nearby

Air Quality

  Air Quality AQ Index Pollutant
Not available.

Snow Depth

Station Depth Elevation

Earthquake Activity

City Distance Mag. Time & Date
Minimum magnitude displayed is 2.5.

Coastal Water Temperatures

Place Temperature

Stations

Nearby Weather Stations

Station Location Temp. Windchill Dew Point Humidity Wind Precip. Elev Updated Type
                   

Watches & Warnings

There are currently no watches in effect.